Peace Haven Estates, North Carolina
Current Conditions -  °F | °C
As of 6:54 AM on Thursday 18 Dec 2014 (Local Time) from KINT Reporting Station
Clear Clear  
Wind Chill: 30°   Ceiling: Unl
Heat Index: 37°   Visibility: 10mi
Dew Point: 22°   Wind: 10mph
Humidity: 54%   Direction: 360°N
Pressure: 30.15"   Gusts: NA
Location:  36.0956°N, 80.3215°W
Report Text: KINT 181154Z 36009KT 10SM CLR 03/M06 A3015 RMK AO2 SLP210 T00281056 10061 20028 53010
Loading
Personal Weather Stations






























Interactive Weather Map New forecast layout! Learn more

10-Day Weather Forecast

Advertisements
Track Severe Weather on mobile